createdAt,value
2024-05-09T00:00:22.499Z,0.00
2024-05-09T00:01:17.651Z,0.00
2024-05-09T00:02:17.659Z,0.00
2024-05-09T00:03:17.582Z,0.00
2024-05-09T00:04:17.558Z,0.00
2024-05-09T00:05:17.646Z,0.00
2024-05-09T00:06:17.542Z,0.00
2024-05-09T00:07:17.493Z,0.00
2024-05-09T00:08:17.525Z,0.00
2024-05-09T00:09:17.465Z,0.00
2024-05-09T00:10:25.355Z,0.00
2024-05-09T00:11:17.507Z,0.00
2024-05-09T00:12:17.606Z,0.00
2024-05-09T00:13:17.411Z,0.00
2024-05-09T00:14:17.439Z,0.00
2024-05-09T00:15:17.358Z,0.00
2024-05-09T00:16:17.338Z,0.00
2024-05-09T00:17:17.488Z,0.00
2024-05-09T00:18:17.517Z,0.00
2024-05-09T00:19:17.413Z,0.00
2024-05-09T00:20:23.983Z,0.00
2024-05-09T00:21:17.280Z,0.00
2024-05-09T00:22:17.249Z,0.00
2024-05-09T00:23:17.312Z,0.00
2024-05-09T00:24:17.217Z,0.00
2024-05-09T00:25:17.205Z,0.00
2024-05-09T00:26:17.233Z,0.00
2024-05-09T00:27:17.178Z,0.00
2024-05-09T00:28:27.329Z,0.00
2024-05-09T00:30:32.753Z,0.00
2024-05-09T00:31:24.154Z,0.00
2024-05-09T00:33:31.313Z,0.00
2024-05-09T00:34:31.127Z,0.00
2024-05-09T00:36:38.162Z,0.00
2024-05-09T00:37:38.326Z,0.00
2024-05-09T00:39:46.143Z,0.00
2024-05-09T00:40:46.145Z,0.00
2024-05-09T00:42:53.085Z,0.00
2024-05-09T00:43:53.048Z,0.00
2024-05-09T00:45:49.976Z,0.00
2024-05-09T00:46:49.975Z,0.00
2024-05-09T00:47:50.269Z,0.00
2024-05-09T00:48:49.966Z,0.00
2024-05-09T00:49:49.920Z,0.00
2024-05-09T00:50:49.968Z,0.00
2024-05-09T00:51:49.847Z,0.00
2024-05-09T00:52:49.914Z,0.00
2024-05-09T00:53:49.812Z,0.00
2024-05-09T00:54:49.792Z,0.00
2024-05-09T00:55:49.829Z,0.00
2024-05-09T00:56:49.755Z,0.00
2024-05-09T00:57:49.735Z,0.00
2024-05-09T00:58:49.794Z,0.00
2024-05-09T00:59:49.703Z,0.00
2024-05-09T01:00:49.706Z,0.00
2024-05-09T01:01:49.810Z,0.00
2024-05-09T01:02:49.757Z,0.00
2024-05-09T01:03:51.258Z,0.00
2024-05-09T01:04:49.827Z,0.00
2024-05-09T01:05:49.707Z,0.00
2024-05-09T01:06:49.609Z,0.00
2024-05-09T01:07:49.642Z,0.00
2024-05-09T01:08:49.580Z,0.00
2024-05-09T01:09:49.555Z,0.00
2024-05-09T01:10:49.810Z,0.00
2024-05-09T01:11:49.656Z,0.00
2024-05-09T01:12:49.517Z,0.00
2024-05-09T01:13:49.564Z,0.00
2024-05-09T01:14:49.484Z,0.00
2024-05-09T01:15:49.466Z,0.00
2024-05-09T01:16:49.502Z,0.00
2024-05-09T01:17:49.668Z,0.00
2024-05-09T01:18:49.504Z,0.00
2024-05-09T01:19:49.466Z,0.00
2024-05-09T01:20:49.433Z,0.00
2024-05-09T01:21:49.382Z,0.00
2024-05-09T01:22:49.435Z,0.00
2024-05-09T01:23:49.354Z,0.00
2024-05-09T01:24:49.332Z,0.00
2024-05-09T01:25:49.380Z,0.00
2024-05-09T01:26:49.312Z,0.00
2024-05-09T01:27:49.287Z,0.00
2024-05-09T01:28:49.327Z,0.00
2024-05-09T01:29:49.257Z,0.00
2024-05-09T01:30:49.247Z,0.00
2024-05-09T01:31:49.307Z,0.00
2024-05-09T01:32:49.444Z,0.00
2024-05-09T01:33:49.264Z,0.00
2024-05-09T01:34:49.229Z,0.00
2024-05-09T01:35:49.197Z,0.00
2024-05-09T01:36:49.157Z,0.00
2024-05-09T01:37:49.209Z,0.00
2024-05-09T01:38:49.142Z,0.00
2024-05-09T01:39:49.126Z,0.00
2024-05-09T01:40:49.145Z,0.00
2024-05-09T01:41:49.091Z,0.00
2024-05-09T01:42:49.068Z,0.00
2024-05-09T01:43:49.068Z,0.00
2024-05-09T01:44:49.047Z,0.00
2024-05-09T01:45:49.034Z,0.00
2024-05-09T01:46:49.058Z,0.00
2024-05-09T01:47:49.072Z,0.00
2024-05-09T01:48:49.053Z,0.00
2024-05-09T01:49:48.991Z,0.00
2024-05-09T01:50:49.031Z,0.00
2024-05-09T01:51:48.936Z,0.00
2024-05-09T01:52:48.984Z,0.00
2024-05-09T01:53:48.907Z,0.00
2024-05-09T01:54:48.891Z,0.00
2024-05-09T01:55:48.917Z,0.00
2024-05-09T01:56:48.889Z,0.00
2024-05-09T01:57:48.848Z,0.00
2024-05-09T01:58:48.906Z,0.00
2024-05-09T01:59:48.815Z,0.00
2024-05-09T02:00:48.875Z,0.00
2024-05-09T02:01:56.664Z,0.00
2024-05-09T02:02:48.846Z,0.00
2024-05-09T02:03:49.046Z,0.00
2024-05-09T02:04:48.842Z,0.00
2024-05-09T02:05:48.777Z,0.00
2024-05-09T02:06:48.712Z,0.00
2024-05-09T02:07:48.710Z,0.00
2024-05-09T02:08:48.683Z,0.00
2024-05-09T02:09:48.668Z,0.00
2024-05-09T02:10:49.182Z,0.00
2024-05-09T02:11:48.795Z,0.00
2024-05-09T02:12:48.641Z,0.00
2024-05-09T02:13:48.612Z,0.00
2024-05-09T02:14:48.591Z,0.00
2024-05-09T02:15:48.588Z,0.00
2024-05-09T02:16:48.634Z,0.00
2024-05-09T02:17:48.765Z,0.00
2024-05-09T02:18:48.615Z,0.00
2024-05-09T02:19:48.559Z,0.00
2024-05-09T02:20:48.535Z,0.00
2024-05-09T02:21:48.489Z,0.00
2024-05-09T02:22:48.519Z,0.00
2024-05-09T02:23:48.458Z,0.00
2024-05-09T02:24:48.442Z,0.00
2024-05-09T02:25:48.508Z,0.00
2024-05-09T02:26:48.412Z,0.00
2024-05-09T02:27:48.401Z,0.00
2024-05-09T02:28:48.444Z,0.00
2024-05-09T02:29:48.371Z,0.00
2024-05-09T02:30:48.355Z,0.00
2024-05-09T02:31:48.557Z,0.00
2024-05-09T02:32:48.485Z,0.00
2024-05-09T02:33:48.651Z,0.00
2024-05-09T02:34:48.482Z,0.00
2024-05-09T02:35:48.298Z,0.00
2024-05-09T02:36:48.279Z,0.00
2024-05-09T02:37:48.289Z,0.00
2024-05-09T02:38:48.232Z,0.00
2024-05-09T02:39:48.221Z,0.00
2024-05-09T02:40:48.265Z,0.00
2024-05-09T02:41:48.235Z,0.00
2024-05-09T02:42:48.174Z,0.00
2024-05-09T02:43:48.202Z,0.00
2024-05-09T02:44:48.138Z,0.00
2024-05-09T02:45:48.121Z,0.00
2024-05-09T02:46:48.154Z,0.00
2024-05-09T02:47:48.313Z,0.00
2024-05-09T02:48:48.182Z,0.00
2024-05-09T02:49:48.105Z,0.00
2024-05-09T02:50:48.099Z,0.00
2024-05-09T02:51:48.035Z,0.00
2024-05-09T02:52:48.046Z,0.00
2024-05-09T02:53:48.068Z,0.00
2024-05-09T02:54:48.021Z,0.00
2024-05-09T02:55:48.003Z,0.00
2024-05-09T02:56:47.951Z,0.00
2024-05-09T02:57:47.950Z,0.00
2024-05-09T02:58:47.958Z,0.00
2024-05-09T02:59:47.909Z,0.00
2024-05-09T03:00:47.931Z,0.00
2024-05-09T03:01:47.978Z,0.00
2024-05-09T03:02:47.969Z,0.00
2024-05-09T03:03:48.003Z,0.00
2024-05-09T03:04:47.880Z,0.00
2024-05-09T03:05:47.978Z,0.00
2024-05-09T03:06:47.803Z,0.00
2024-05-09T03:07:47.817Z,0.00
2024-05-09T03:08:47.785Z,0.00
2024-05-09T03:09:47.771Z,0.00
2024-05-09T03:10:47.810Z,0.00
2024-05-09T03:11:47.877Z,0.00
2024-05-09T03:12:47.706Z,0.00
2024-05-09T03:13:47.771Z,0.00
2024-05-09T03:14:47.677Z,0.00
2024-05-09T03:15:47.653Z,0.00
2024-05-09T03:16:47.687Z,0.00
2024-05-09T03:17:47.794Z,0.00
2024-05-09T03:18:47.671Z,0.00
2024-05-09T03:19:47.613Z,0.00
2024-05-09T03:20:47.602Z,4.00
2024-05-09T03:21:47.559Z,4.00
2024-05-09T03:22:47.579Z,0.00
2024-05-09T03:23:47.606Z,0.00
2024-05-09T03:24:47.511Z,4.00
2024-05-09T03:25:47.546Z,0.00
2024-05-09T03:26:47.474Z,4.00
2024-05-09T03:27:47.460Z,4.00
2024-05-09T03:28:47.461Z,4.00
2024-05-09T03:29:47.441Z,8.00
2024-05-09T03:30:47.459Z,8.00
2024-05-09T03:31:47.493Z,8.00
2024-05-09T03:32:47.628Z,8.00
2024-05-09T03:33:47.580Z,12.00
2024-05-09T03:34:47.383Z,12.00
2024-05-09T03:35:47.604Z,12.00
2024-05-09T03:36:47.314Z,16.00
2024-05-09T03:37:47.350Z,16.00
2024-05-09T03:38:47.284Z,16.00
2024-05-09T03:39:47.269Z,20.00
2024-05-09T03:40:47.400Z,24.00
2024-05-09T03:41:47.240Z,28.00
2024-05-09T03:42:47.238Z,28.00
2024-05-09T03:43:47.232Z,32.00
2024-05-09T03:44:47.195Z,32.00
2024-05-09T03:45:47.173Z,40.00
2024-05-09T03:46:47.207Z,40.00
2024-05-09T03:47:47.398Z,44.00
2024-05-09T03:48:47.234Z,48.00
2024-05-09T03:49:47.160Z,52.00
2024-05-09T03:50:47.289Z,60.00
2024-05-09T03:51:47.064Z,64.00
2024-05-09T03:55:50.025Z,88.00
2024-05-09T03:56:49.902Z,92.00
2024-05-09T03:59:26.636Z,112.00
2024-05-09T04:00:34.872Z,116.00
2024-05-09T04:23:56.783Z,320.00
2024-05-09T04:24:56.682Z,328.00
2024-05-09T04:25:56.636Z,340.00
2024-05-09T04:26:56.576Z,348.00
2024-05-09T04:27:56.570Z,360.00
2024-05-09T04:28:56.508Z,368.00
2024-05-09T04:29:56.470Z,380.00
2024-05-09T04:30:56.456Z,392.00
2024-05-09T04:31:56.507Z,404.00
2024-05-09T04:32:56.467Z,412.00
2024-05-09T04:33:56.566Z,424.00
2024-05-09T04:34:56.475Z,436.00
2024-05-09T04:35:56.367Z,448.00
2024-05-09T04:36:56.356Z,456.00
2024-05-09T04:37:56.400Z,468.00
2024-05-09T04:38:56.353Z,480.00
2024-05-09T04:39:56.298Z,492.00
2024-05-09T04:40:56.347Z,500.00
2024-05-09T04:41:56.277Z,516.00
2024-05-09T04:42:56.255Z,524.00
2024-05-09T04:43:56.278Z,536.00
2024-05-09T04:44:58.632Z,548.00
2024-05-09T04:45:56.202Z,560.00
2024-05-09T04:46:56.354Z,564.00
2024-05-09T04:58:41.654Z,692.00
2024-05-09T04:59:41.510Z,720.00
2024-05-09T05:00:41.948Z,752.00
2024-05-09T05:01:41.543Z,784.00
2024-05-09T05:02:41.577Z,812.00
2024-05-09T05:03:42.685Z,848.00
2024-05-09T05:04:41.449Z,884.00
2024-05-09T05:05:41.809Z,920.00
2024-05-09T05:06:41.231Z,960.00
2024-05-09T05:07:41.221Z,1000.00
2024-05-09T05:08:41.233Z,1044.00
2024-05-09T05:09:41.240Z,1088.00
2024-05-09T05:10:41.186Z,1128.00
2024-05-09T05:11:41.272Z,1176.00
2024-05-09T05:12:41.143Z,1208.00
2024-05-09T05:13:41.752Z,1232.00
2024-05-09T05:14:41.149Z,1240.00
2024-05-09T05:15:41.088Z,1268.00
2024-05-09T05:16:41.069Z,1292.00
2024-05-09T05:17:41.259Z,1312.00
2024-05-09T05:18:41.197Z,1340.00
2024-05-09T05:19:41.135Z,1364.00
2024-05-09T05:20:41.047Z,1384.00
2024-05-09T05:21:40.989Z,1400.00
2024-05-09T05:22:40.982Z,1424.00
2024-05-09T05:23:41.127Z,1444.00
2024-05-09T05:24:40.946Z,1468.00
2024-05-09T05:25:40.924Z,1492.00
2024-05-09T05:26:41.021Z,1516.00
2024-05-09T05:27:40.964Z,1540.00
2024-05-09T05:28:40.886Z,1560.00
2024-05-09T05:29:40.947Z,1584.00
2024-05-09T05:30:40.862Z,1608.00
2024-05-09T05:31:40.856Z,1632.00
2024-05-09T05:32:41.002Z,1660.00
2024-05-09T05:33:40.899Z,1688.00
2024-05-09T05:34:40.787Z,1716.00
2024-05-09T05:35:40.824Z,1744.00
2024-05-09T05:36:40.961Z,1776.00
2024-05-09T05:37:41.193Z,1804.00
2024-05-09T05:38:40.787Z,1840.00
2024-05-09T05:39:40.713Z,1868.00
2024-05-09T05:40:41.227Z,1904.00
2024-05-09T05:41:40.744Z,1936.00
2024-05-09T05:42:40.760Z,1964.00
2024-05-09T05:43:40.656Z,2000.00
2024-05-09T05:44:40.672Z,2032.00
2024-05-09T05:45:40.624Z,2072.00
2024-05-09T05:46:40.623Z,2108.00
2024-05-09T05:47:41.003Z,2148.00
2024-05-09T05:48:40.645Z,2196.00
2024-05-09T05:49:40.712Z,2236.00
2024-05-09T05:50:40.604Z,2276.00
2024-05-09T05:51:40.534Z,2324.00
2024-05-09T05:52:40.532Z,2368.00
2024-05-09T05:53:40.571Z,2416.00
2024-05-09T05:54:40.491Z,2460.00
2024-05-09T05:55:40.532Z,2516.00
2024-05-09T05:56:40.522Z,2564.00
2024-05-09T05:57:40.458Z,2600.00
2024-05-09T05:58:40.436Z,2652.00
2024-05-09T05:59:40.469Z,2704.00
2024-05-09T06:00:41.465Z,2756.00
2024-05-09T06:01:40.395Z,2808.00
2024-05-09T06:02:40.657Z,2856.00
2024-05-09T06:03:40.582Z,2924.00
2024-05-09T06:04:40.428Z,2988.00
2024-05-09T06:05:41.056Z,3044.00
2024-05-09T06:06:40.322Z,3100.00
2024-05-09T06:07:40.314Z,3164.00
2024-05-09T06:08:40.372Z,3240.00
2024-05-09T06:09:40.289Z,3308.00
2024-05-09T06:10:41.416Z,3372.00
2024-05-09T06:11:40.428Z,3440.00
2024-05-09T06:12:40.239Z,3508.00
2024-05-09T06:13:40.230Z,3572.00
2024-05-09T06:14:40.371Z,3640.00
2024-05-09T06:15:40.304Z,3704.00
2024-05-09T06:16:40.192Z,3768.00
2024-05-09T06:17:40.283Z,3836.00
2024-05-09T06:18:40.347Z,3908.00
2024-05-09T06:19:40.263Z,3972.00
2024-05-09T06:20:40.579Z,4040.00
2024-05-09T06:21:40.166Z,4112.00
2024-05-09T06:22:40.109Z,4184.00
2024-05-09T06:23:40.184Z,4252.00
2024-05-09T06:24:40.080Z,4332.00
2024-05-09T06:25:40.073Z,4404.00
2024-05-09T06:26:40.064Z,4476.00
2024-05-09T06:27:40.045Z,4556.00
2024-05-09T06:28:40.037Z,4632.00
2024-05-09T06:29:40.104Z,4708.00
2024-05-09T06:30:41.841Z,4788.00
2024-05-09T06:31:39.996Z,4860.00
2024-05-09T06:32:40.150Z,4944.00
2024-05-09T06:33:40.070Z,5016.00
2024-05-09T06:34:40.090Z,5096.00
2024-05-09T06:35:40.527Z,5180.00
2024-05-09T06:36:39.931Z,5264.00
2024-05-09T06:37:39.921Z,5352.00
2024-05-09T06:38:40.037Z,5440.00
2024-05-09T06:39:39.898Z,5524.00
2024-05-09T06:40:41.668Z,5612.00
2024-05-09T06:41:39.880Z,5704.00
2024-05-09T06:42:39.864Z,5788.00
2024-05-09T06:43:39.853Z,5880.00
2024-05-09T06:44:39.895Z,5968.00
2024-05-09T06:45:40.216Z,6052.00
2024-05-09T06:46:39.852Z,6116.00
2024-05-09T06:47:39.914Z,6180.00
2024-05-09T06:48:40.114Z,6260.00
2024-05-09T06:49:39.805Z,6312.00
2024-05-09T06:50:40.445Z,6376.00
2024-05-09T06:51:39.766Z,6440.00
2024-05-09T06:52:39.739Z,6516.00
2024-05-09T06:53:39.909Z,6596.00
2024-05-09T06:54:39.719Z,6672.00
2024-05-09T06:55:39.744Z,6760.00
2024-05-09T06:56:39.769Z,6832.00
2024-05-09T06:57:42.505Z,6908.00
2024-05-09T06:58:39.675Z,7020.00
2024-05-09T06:59:39.715Z,7144.00
2024-05-09T07:00:41.572Z,7276.00
2024-05-09T07:01:39.745Z,7408.00
2024-05-09T07:02:39.863Z,7528.00
2024-05-09T07:03:39.732Z,7640.00
2024-05-09T07:04:39.673Z,7744.00
2024-05-09T07:05:39.750Z,7876.00
2024-05-09T07:06:39.590Z,8004.00
2024-05-09T07:07:39.584Z,8116.00
2024-05-09T07:08:39.702Z,8236.00
2024-05-09T07:09:39.563Z,8332.00
2024-05-09T07:10:39.549Z,8500.00
2024-05-09T07:11:39.628Z,8628.00
2024-05-09T07:12:39.560Z,8772.00
2024-05-09T07:13:39.530Z,8912.00
2024-05-09T07:14:39.636Z,9072.00
2024-05-09T07:15:39.512Z,9248.00
2024-05-09T07:23:55.009Z,10308.00
2024-05-09T07:24:54.952Z,10432.00
2024-05-09T07:25:54.932Z,10496.00
2024-05-09T07:26:54.929Z,10572.00
2024-05-09T07:27:54.954Z,10656.00
2024-05-09T07:28:54.934Z,10740.00
2024-05-09T07:29:54.872Z,10832.00
2024-05-09T07:30:54.912Z,10876.00
2024-05-09T07:31:54.915Z,10912.00
2024-05-09T07:32:55.064Z,10992.00
2024-05-09T07:33:54.938Z,11028.00
2024-05-09T07:34:54.917Z,11108.00
2024-05-09T07:35:54.853Z,11172.00
2024-05-09T07:36:54.858Z,11232.00
2024-05-09T07:37:54.867Z,11288.00
2024-05-09T07:38:54.831Z,11312.00
2024-05-09T07:39:54.833Z,11364.00
2024-05-09T07:40:54.861Z,11416.00
2024-05-09T07:41:54.819Z,11472.00
2024-05-09T07:42:54.812Z,11516.00
2024-05-09T07:43:54.824Z,11568.00
2024-05-09T07:50:34.317Z,11812.00
2024-05-09T07:52:23.281Z,11904.00
2024-05-09T07:53:33.130Z,12016.00
2024-05-09T07:53:41.112Z,12072.00
2024-05-09T07:54:33.845Z,12112.00
2024-05-09T07:55:33.890Z,12140.00
2024-05-09T07:56:33.941Z,12160.00
2024-05-09T07:57:33.782Z,12224.00
2024-05-09T07:58:33.762Z,12276.00
2024-05-09T07:59:37.637Z,12348.00
2024-05-09T08:00:33.841Z,12412.00
2024-05-09T08:01:34.006Z,12424.00
2024-05-09T08:02:33.929Z,12464.00
2024-05-09T08:03:34.139Z,12516.00
2024-05-09T08:04:33.850Z,12564.00
2024-05-09T08:05:33.866Z,12676.00
2024-05-09T08:06:33.787Z,12744.00
2024-05-09T08:07:33.726Z,12672.00
2024-05-09T08:08:33.724Z,12624.00
2024-05-09T08:09:35.586Z,12620.00
2024-05-09T08:10:33.793Z,12768.00
2024-05-09T08:11:33.757Z,12592.00
2024-05-09T08:12:33.750Z,13160.00
2024-05-09T08:13:33.722Z,13164.00
2024-05-09T08:14:33.713Z,13148.00
2024-05-09T08:15:33.744Z,13112.00
2024-05-09T08:16:33.799Z,13120.00
2024-05-09T08:17:33.804Z,13144.00
2024-05-09T08:18:33.994Z,13180.00
2024-05-09T08:19:33.767Z,13208.00
2024-05-09T08:20:35.360Z,13300.00
2024-05-09T08:21:33.793Z,13324.00
2024-05-09T08:22:33.707Z,13332.00
2024-05-09T08:23:33.760Z,13324.00
2024-05-09T08:24:33.754Z,13444.00
2024-05-09T08:25:33.717Z,13472.00
2024-05-09T08:26:33.711Z,13456.00
2024-05-09T08:27:33.770Z,13464.00
2024-05-09T08:28:33.710Z,13484.00
2024-05-09T08:29:33.704Z,13556.00
2024-05-09T08:30:37.183Z,13576.00
2024-05-09T08:31:33.830Z,13492.00
2024-05-09T08:32:33.746Z,13568.00
2024-05-09T08:33:33.987Z,13692.00
2024-05-09T08:34:33.786Z,13724.00
2024-05-09T08:35:33.843Z,13848.00
2024-05-09T08:36:33.725Z,13824.00
2024-05-09T08:37:38.692Z,14004.00
2024-05-09T08:38:33.763Z,14016.00
2024-05-09T08:39:33.732Z,14068.00
2024-05-09T08:40:36.190Z,14064.00
2024-05-09T08:41:33.733Z,13972.00
2024-05-09T08:42:33.756Z,13972.00
2024-05-09T08:43:33.742Z,14004.00
2024-05-09T08:44:33.745Z,14016.00
2024-05-09T08:45:33.763Z,14012.00
2024-05-09T08:46:33.834Z,13668.00
2024-05-09T08:47:33.760Z,14108.00
2024-05-09T08:48:33.821Z,14072.00
2024-05-09T08:49:33.761Z,14132.00
2024-05-09T08:50:38.556Z,14208.00
2024-05-09T08:51:33.751Z,14304.00
2024-05-09T08:52:33.745Z,14340.00
2024-05-09T08:53:33.721Z,14600.00
2024-05-09T08:54:33.770Z,14848.00
2024-05-09T08:55:33.850Z,14944.00
2024-05-09T09:03:45.453Z,15580.00
2024-05-09T09:04:45.374Z,15840.00
2024-05-09T09:05:45.354Z,16320.00
2024-05-09T09:06:45.364Z,16384.00
2024-05-09T09:07:45.314Z,16384.00
2024-05-09T09:08:45.288Z,16448.00
2024-05-09T09:09:45.315Z,16416.00
2024-05-09T09:10:45.515Z,16480.00
2024-05-09T09:11:45.340Z,16800.00
2024-05-09T09:12:45.331Z,17184.00
2024-05-09T09:13:45.297Z,16064.00
2024-05-09T09:14:45.348Z,16448.00
2024-05-09T09:15:45.320Z,16608.00
2024-05-09T09:16:45.297Z,16608.00
2024-05-09T09:17:45.386Z,16384.00
2024-05-09T09:18:45.402Z,11072.00
2024-05-09T09:19:45.325Z,16384.00
2024-05-09T09:20:45.431Z,16384.00
2024-05-09T09:21:45.334Z,16640.00
2024-05-09T09:22:45.311Z,16640.00
2024-05-09T09:23:45.311Z,17440.00
2024-05-09T09:24:45.370Z,11844.00
2024-05-09T09:25:45.336Z,4640.00
2024-05-09T09:26:45.324Z,5120.00
2024-05-09T09:27:45.359Z,4556.00
2024-05-09T09:28:45.328Z,4372.00
2024-05-09T09:29:45.344Z,4484.00
2024-05-09T09:30:45.362Z,5512.00
2024-05-09T09:31:45.324Z,5540.00
2024-05-09T09:32:45.404Z,6960.00
2024-05-09T09:33:45.531Z,18752.00
2024-05-09T09:34:45.509Z,5276.00
2024-05-09T09:35:45.333Z,4400.00
2024-05-09T09:36:45.378Z,3904.00
2024-05-09T09:37:45.344Z,3604.00
2024-05-09T09:38:45.323Z,3416.00
2024-05-09T09:39:49.056Z,3256.00
2024-05-09T09:40:49.143Z,3200.00
2024-05-09T09:41:45.324Z,3224.00
2024-05-09T09:42:45.353Z,3296.00
2024-05-09T09:43:45.320Z,3448.00
2024-05-09T09:44:51.370Z,3580.00
2024-05-09T09:45:45.332Z,3672.00
2024-05-09T09:46:45.307Z,3632.00
2024-05-09T09:47:45.425Z,3672.00
2024-05-09T09:48:45.510Z,3912.00
2024-05-09T09:49:45.318Z,14724.00
2024-05-09T09:50:45.329Z,23488.00
2024-05-09T09:51:45.329Z,24192.00
2024-05-09T09:52:45.494Z,23680.00
2024-05-09T09:53:45.294Z,23616.00
2024-05-09T09:54:45.319Z,23104.00
2024-05-09T09:55:45.298Z,23616.00
2024-05-09T09:56:45.279Z,23648.00
2024-05-09T09:57:45.350Z,24320.00
2024-05-09T09:58:45.271Z,20160.00
2024-05-09T09:59:45.278Z,11512.00
2024-05-09T10:00:45.618Z,25312.00
2024-05-09T10:01:45.349Z,26112.00
2024-05-09T10:02:45.326Z,23040.00
2024-05-09T10:03:45.432Z,25824.00
2024-05-09T10:04:45.378Z,24704.00
2024-05-09T10:05:47.218Z,25408.00
2024-05-09T10:06:45.272Z,25728.00
2024-05-09T10:07:45.279Z,26272.00
2024-05-09T10:08:45.266Z,25216.00
2024-05-09T10:09:45.334Z,24832.00
2024-05-09T10:10:45.428Z,26176.00
2024-05-09T10:11:49.330Z,25376.00
2024-05-09T10:12:45.314Z,25312.00
2024-05-09T10:13:45.270Z,25248.00
2024-05-09T10:14:45.282Z,25024.00
2024-05-09T10:15:45.355Z,24928.00
2024-05-09T10:16:45.276Z,24608.00
2024-05-09T10:17:45.369Z,24128.00
2024-05-09T10:18:45.482Z,24448.00
2024-05-09T10:19:45.388Z,24896.00
2024-05-09T10:20:45.331Z,24064.00
2024-05-09T10:21:45.354Z,24896.00
2024-05-09T10:22:45.297Z,24704.00
2024-05-09T10:23:45.303Z,24672.00
2024-05-09T10:24:45.352Z,24640.00
2024-05-09T10:25:45.299Z,24800.00
2024-05-09T10:26:45.312Z,24672.00
2024-05-09T10:27:45.659Z,25920.00
2024-05-09T10:37:57.733Z,28384.00
2024-05-09T10:38:56.972Z,28608.00
2024-05-09T10:39:57.011Z,30048.00
2024-05-09T10:40:57.045Z,31232.00
2024-05-09T10:41:56.948Z,30240.00
2024-05-09T10:42:57.112Z,30144.00
2024-05-09T10:43:56.951Z,30816.00
2024-05-09T10:44:56.964Z,29728.00
2024-05-09T10:45:57.096Z,28576.00
2024-05-09T10:46:57.058Z,27904.00
2024-05-09T10:47:57.075Z,26752.00
2024-05-09T10:48:57.615Z,28128.00
2024-05-09T10:49:57.145Z,28032.00
2024-05-09T10:50:56.996Z,26336.00
2024-05-09T10:51:57.047Z,27008.00
2024-05-09T10:52:57.005Z,26816.00
2024-05-09T10:53:57.024Z,28000.00
2024-05-09T10:54:57.109Z,27968.00
2024-05-09T10:55:57.032Z,27680.00
2024-05-09T10:56:57.028Z,28576.00
2024-05-09T10:57:57.053Z,27552.00
2024-05-09T10:58:57.041Z,24928.00
2024-05-09T10:59:57.047Z,25408.00
2024-05-09T11:00:57.097Z,25440.00
2024-05-09T11:01:57.126Z,26368.00
2024-05-09T11:02:57.092Z,25824.00
2024-05-09T11:03:57.158Z,25056.00
2024-05-09T11:04:57.155Z,25536.00
2024-05-09T11:05:57.102Z,25504.00
2024-05-09T11:06:57.173Z,25536.00
2024-05-09T11:07:57.092Z,25280.00
2024-05-09T11:08:57.098Z,24960.00
2024-05-09T11:09:57.128Z,24736.00
2024-05-09T11:10:57.151Z,24960.00
2024-05-09T11:11:57.168Z,24768.00
2024-05-09T11:12:57.187Z,24672.00
2024-05-09T11:13:57.129Z,25088.00
2024-05-09T11:14:57.155Z,18592.00
2024-05-09T11:15:57.227Z,21728.00
2024-05-09T11:16:57.142Z,20128.00
2024-05-09T11:17:57.300Z,18944.00
2024-05-09T11:18:57.666Z,17984.00
2024-05-09T11:19:57.213Z,17472.00
2024-05-09T11:20:57.167Z,17056.00
2024-05-09T11:21:57.192Z,17312.00
2024-05-09T11:22:57.179Z,17280.00
2024-05-09T11:23:57.236Z,17184.00
2024-05-09T11:24:57.222Z,17120.00
2024-05-09T11:25:57.198Z,16800.00
2024-05-09T11:26:57.226Z,16992.00
2024-05-09T11:27:57.260Z,17056.00
2024-05-09T11:28:57.222Z,16992.00
2024-05-09T11:29:57.224Z,16704.00
2024-05-09T11:30:57.261Z,12700.00
2024-05-09T11:31:57.299Z,6896.00
2024-05-09T11:32:57.334Z,15456.00
2024-05-09T11:33:57.448Z,12584.00
2024-05-09T11:34:57.260Z,5836.00
2024-05-09T11:35:57.278Z,11108.00
2024-05-09T11:36:57.293Z,4056.00
2024-05-09T11:37:57.269Z,3912.00
2024-05-09T11:38:57.277Z,3848.00
2024-05-09T11:39:57.316Z,14504.00
2024-05-09T11:40:57.283Z,15268.00
2024-05-09T11:41:57.292Z,15012.00
2024-05-09T11:42:57.385Z,14804.00
2024-05-09T11:43:57.300Z,14628.00
2024-05-09T11:44:57.307Z,14420.00
2024-05-09T11:45:57.577Z,14452.00
2024-05-09T11:46:57.311Z,14440.00
2024-05-09T11:47:57.532Z,14488.00
2024-05-09T11:48:57.369Z,14364.00
2024-05-09T11:49:57.429Z,14432.00
2024-05-09T11:50:57.318Z,14432.00
2024-05-09T11:51:57.383Z,14464.00
2024-05-09T11:52:57.327Z,14416.00
2024-05-09T12:14:54.370Z,7928.00
2024-05-09T12:15:53.135Z,12560.00
2024-05-09T12:16:53.315Z,3784.00
2024-05-09T12:17:53.726Z,3652.00
2024-05-09T12:18:53.605Z,5844.00
2024-05-09T12:19:53.034Z,8068.00
2024-05-09T12:20:53.036Z,10348.00
2024-05-09T12:21:53.102Z,4696.00
2024-05-09T12:22:53.033Z,9328.00
2024-05-09T12:23:53.051Z,3836.00
2024-05-09T12:24:53.124Z,3688.00
2024-05-09T12:25:53.047Z,3584.00
2024-05-09T12:26:53.047Z,3404.00
2024-05-09T12:27:53.152Z,4272.00
2024-05-09T12:28:53.040Z,12200.00
2024-05-09T12:29:53.050Z,4700.00
2024-05-09T12:30:53.165Z,5196.00
2024-05-09T12:31:53.169Z,3512.00
2024-05-09T12:32:53.376Z,10188.00
2024-05-09T12:33:53.102Z,8132.00
2024-05-09T12:34:53.055Z,4124.00
2024-05-09T12:35:53.036Z,3600.00
2024-05-09T12:36:53.097Z,10552.00
2024-05-09T12:37:53.034Z,2944.00
2024-05-09T12:38:53.041Z,3860.00
2024-05-09T12:39:53.081Z,9620.00
2024-05-09T12:40:53.205Z,10468.00
2024-05-09T12:41:53.035Z,8860.00
2024-05-09T12:42:53.060Z,9984.00
2024-05-09T12:43:53.043Z,9664.00
2024-05-09T12:44:53.030Z,9424.00
2024-05-09T12:45:53.061Z,9268.00
2024-05-09T12:46:53.030Z,9132.00
2024-05-09T12:47:53.122Z,9052.00
2024-05-09T12:48:53.237Z,8912.00
2024-05-09T12:49:53.060Z,8724.00
2024-05-09T12:50:53.195Z,8588.00
2024-05-09T12:51:53.046Z,8404.00
2024-05-09T12:52:53.022Z,8188.00
2024-05-09T12:53:53.021Z,8024.00
2024-05-09T12:54:53.102Z,7872.00
2024-05-09T12:55:57.038Z,7780.00
2024-05-09T13:02:07.159Z,3756.00
2024-05-09T13:19:00.646Z,6004.00
2024-05-09T13:20:00.721Z,5864.00
2024-05-09T13:21:00.659Z,5824.00
2024-05-09T13:22:00.520Z,5472.00
2024-05-09T13:23:00.505Z,5532.00
2024-05-09T13:36:30.400Z,5172.00
2024-05-09T13:37:31.011Z,5096.00
2024-05-09T13:38:30.496Z,5000.00
2024-05-09T13:39:31.137Z,4928.00
2024-05-09T13:40:34.304Z,4896.00
2024-05-09T13:41:30.173Z,4828.00
2024-05-09T13:42:30.162Z,4764.00
2024-05-09T13:43:31.078Z,4680.00
2024-05-09T13:44:30.232Z,4600.00
2024-05-09T13:45:30.607Z,4536.00
2024-05-09T13:46:30.468Z,4460.00
2024-05-09T13:47:30.047Z,4380.00
2024-05-09T13:48:30.125Z,4284.00
2024-05-09T13:49:30.249Z,4176.00
2024-05-09T13:50:34.483Z,4092.00
2024-05-09T13:51:30.009Z,4012.00
2024-05-09T13:52:29.958Z,3984.00
2024-05-09T13:53:29.967Z,3928.00
2024-05-09T13:54:30.047Z,3832.00
2024-05-09T13:55:29.972Z,3764.00
2024-05-09T13:56:29.954Z,3704.00
2024-05-09T13:57:29.955Z,3596.00
2024-05-09T13:58:29.975Z,3448.00
2024-05-09T13:59:29.934Z,3332.00
2024-05-09T14:00:42.674Z,3288.00
2024-05-09T14:01:29.983Z,3236.00
2024-05-09T14:02:30.063Z,3164.00
2024-05-09T14:03:30.154Z,3112.00
2024-05-09T14:04:30.099Z,3060.00
2024-05-09T14:05:30.123Z,3012.00
2024-05-09T14:06:29.951Z,2944.00
2024-05-09T14:07:29.876Z,2864.00
2024-05-09T14:08:29.869Z,2784.00
2024-05-09T14:09:29.902Z,2732.00
2024-05-09T14:10:31.804Z,2744.00
2024-05-09T14:11:29.888Z,2764.00
2024-05-09T14:12:29.888Z,2720.00
2024-05-09T14:13:29.861Z,2656.00
2024-05-09T14:14:30.007Z,2632.00
2024-05-09T14:15:29.936Z,2672.00
2024-05-09T14:46:55.375Z,1672.00
2024-05-09T14:47:55.517Z,1668.00
2024-05-09T15:31:34.668Z,1428.00
2024-05-09T15:32:35.531Z,1392.00
2024-05-09T15:33:34.982Z,1360.00
2024-05-09T15:34:34.945Z,1316.00
2024-05-09T15:35:34.768Z,1272.00
2024-05-09T15:36:34.670Z,1232.00
2024-05-09T15:37:34.456Z,1204.00
2024-05-09T15:38:34.744Z,1172.00
2024-05-09T15:39:34.396Z,1148.00
2024-05-09T15:40:39.184Z,1128.00
2024-05-09T15:41:34.336Z,1100.00